createdAt,value
2019-01-22T00:00:42.261Z,-5.80
2019-01-22T00:03:11.293Z,-5.80
2019-01-22T00:05:40.659Z,-5.80
2019-01-22T00:08:09.657Z,-5.80
2019-01-22T00:10:38.722Z,-5.90
2019-01-22T00:13:08.283Z,-5.90
2019-01-22T00:15:39.698Z,-5.90
2019-01-22T00:18:08.705Z,-5.90
2019-01-22T00:20:38.066Z,-5.90
2019-01-22T00:23:07.126Z,-6.00
2019-01-22T00:25:36.187Z,-6.00
2019-01-22T00:28:05.318Z,-6.00
2019-01-22T00:30:34.446Z,-6.00
2019-01-22T00:33:03.903Z,-6.00
2019-01-22T00:35:33.179Z,-6.00
2019-01-22T00:38:02.150Z,-6.10
2019-01-22T00:40:31.258Z,-6.20
2019-01-22T00:43:00.521Z,-6.20
2019-01-22T00:45:29.820Z,-6.30
2019-01-22T00:47:58.854Z,-6.30
2019-01-22T00:50:28.229Z,-6.30
2019-01-22T00:52:57.575Z,-6.30
2019-01-22T00:55:26.538Z,-6.30
2019-01-22T00:57:55.466Z,-6.30
2019-01-22T01:00:30.182Z,-6.40
2019-01-22T01:02:59.319Z,-6.40
2019-01-22T01:05:28.902Z,-6.40
2019-01-22T01:07:58.969Z,-6.40
2019-01-22T01:10:28.546Z,-6.40
2019-01-22T01:12:57.831Z,-6.40
2019-01-22T01:15:26.965Z,-6.40
2019-01-22T01:17:55.975Z,-6.40
2019-01-22T01:20:25.098Z,-6.30
2019-01-22T01:22:54.097Z,-6.20
2019-01-22T01:25:23.987Z,-6.20
2019-01-22T01:27:53.168Z,-6.10
2019-01-22T01:30:26.402Z,-6.10
2019-01-22T01:32:55.620Z,-6.00
2019-01-22T01:35:24.695Z,-6.00
2019-01-22T01:37:55.470Z,-5.90
2019-01-22T01:40:24.567Z,-5.80
2019-01-22T01:42:53.599Z,-5.80
2019-01-22T01:45:22.870Z,-5.90
2019-01-22T01:47:51.954Z,-6.00
2019-01-22T01:50:20.991Z,-5.90
2019-01-22T01:52:50.001Z,-6.00
2019-01-22T01:55:19.195Z,-6.00
2019-01-22T01:57:48.531Z,-6.00
2019-01-22T02:00:22.029Z,-6.10
2019-01-22T02:02:51.071Z,-6.10
2019-01-22T02:05:20.170Z,-6.20
2019-01-22T02:07:49.221Z,-6.20
2019-01-22T02:10:23.533Z,-6.30
2019-01-22T02:13:05.266Z,-6.40
2019-01-22T02:15:55.654Z,-6.40
2019-01-22T02:18:57.994Z,-6.60
2019-01-22T02:21:39.151Z,-6.50
2019-01-22T02:24:50.797Z,-6.50
2019-01-22T02:28:10.162Z,-6.50
2019-01-22T02:31:18.551Z,-6.60
2019-01-22T02:34:31.858Z,-6.60
2019-01-22T02:37:57.346Z,-6.70
2019-01-22T02:40:56.800Z,-6.70
2019-01-22T02:44:10.554Z,-6.80
2019-01-22T02:47:14.149Z,-6.80
2019-01-22T02:50:27.211Z,-6.80
2019-01-22T02:53:18.775Z,-6.80
2019-01-22T02:56:22.037Z,-6.80
2019-01-22T02:59:10.561Z,-6.80
2019-01-22T03:02:03.310Z,-6.80
2019-01-22T03:04:45.304Z,-6.80
2019-01-22T03:07:37.969Z,-6.80
2019-01-22T03:10:16.669Z,-6.80
2019-01-22T03:13:30.873Z,-6.80
2019-01-22T03:16:53.473Z,-6.80
2019-01-22T03:19:38.257Z,-6.80
2019-01-22T03:22:47.645Z,-6.80
2019-01-22T03:25:34.903Z,-6.80
2019-01-22T03:28:25.121Z,-6.80
2019-01-22T03:31:29.928Z,-6.90
2019-01-22T03:34:28.606Z,-6.80
2019-01-22T03:37:54.244Z,-6.80
2019-01-22T03:41:10.624Z,-6.80
2019-01-22T03:44:16.657Z,-6.70
2019-01-22T03:46:56.207Z,-6.60
2019-01-22T03:49:50.214Z,-6.60
2019-01-22T03:52:44.293Z,-6.50
2019-01-22T03:55:34.158Z,-6.40
2019-01-22T03:58:06.589Z,-6.40
2019-01-22T04:00:51.581Z,-6.40
2019-01-22T04:03:21.562Z,-6.40
2019-01-22T04:05:53.172Z,-6.40
2019-01-22T04:08:22.746Z,-6.40
2019-01-22T04:11:02.792Z,-6.30
2019-01-22T04:13:32.158Z,-6.30
2019-01-22T04:16:01.138Z,-6.30
2019-01-22T04:18:30.130Z,-6.20
2019-01-22T04:20:59.978Z,-6.20
2019-01-22T04:23:37.650Z,-6.20
2019-01-22T04:26:21.324Z,-6.20
2019-01-22T04:29:19.652Z,-6.10
2019-01-22T04:32:03.661Z,-6.10
2019-01-22T04:35:15.925Z,-6.10
2019-01-22T04:38:23.663Z,-6.10
2019-01-22T04:41:31.733Z,-6.10
2019-01-22T04:44:35.977Z,-6.10
2019-01-22T04:47:22.578Z,-6.00
2019-01-22T04:50:21.327Z,-6.00
2019-01-22T04:53:12.162Z,-6.00
2019-01-22T04:55:58.904Z,-5.90
2019-01-22T04:58:47.735Z,-5.90
2019-01-22T05:01:39.842Z,-5.90
2019-01-22T05:04:36.798Z,-5.80
2019-01-22T05:07:36.151Z,-5.80
2019-01-22T05:10:43.550Z,-5.90
2019-01-22T05:13:43.489Z,-6.00
2019-01-22T05:16:40.085Z,-6.00
2019-01-22T05:20:08.735Z,-6.00
2019-01-22T05:23:28.499Z,-6.10
2019-01-22T05:26:27.535Z,-6.20
2019-01-22T05:29:23.465Z,-6.20
2019-01-22T05:32:42.922Z,-6.30
2019-01-22T05:35:30.881Z,-6.30
2019-01-22T05:38:20.192Z,-6.30
2019-01-22T05:41:17.092Z,-6.30
2019-01-22T05:44:09.154Z,-6.20
2019-01-22T05:47:19.218Z,-6.20
2019-01-22T05:50:31.481Z,-6.20
2019-01-22T05:53:50.202Z,-6.30
2019-01-22T05:56:31.223Z,-6.30
2019-01-22T05:59:32.967Z,-6.30
2019-01-22T06:02:12.129Z,-6.30
2019-01-22T06:05:34.743Z,-6.30
2019-01-22T06:08:34.987Z,-6.40
2019-01-22T06:11:36.652Z,-6.30
2019-01-22T06:14:37.242Z,-6.20
2019-01-22T06:17:52.718Z,-6.20
2019-01-22T06:21:09.145Z,-6.10
2019-01-22T06:24:14.000Z,-6.00
2019-01-22T06:27:02.159Z,-5.90
2019-01-22T06:29:59.230Z,-5.90
2019-01-22T06:32:51.831Z,-5.80
2019-01-22T06:35:35.635Z,-5.70
2019-01-22T06:38:34.453Z,-5.60
2019-01-22T06:41:57.100Z,-5.40
2019-01-22T06:45:10.018Z,-5.40
2019-01-22T06:48:26.110Z,-5.30
2019-01-22T06:51:29.497Z,-5.20
2019-01-22T06:54:11.439Z,-5.10
2019-01-22T06:57:01.812Z,-5.10
2019-01-22T06:59:51.040Z,-5.00
2019-01-22T07:02:51.304Z,-5.00
2019-01-22T07:05:46.643Z,-4.90
2019-01-22T07:08:48.814Z,-4.90
2019-01-22T07:11:41.437Z,-4.80
2019-01-22T07:14:24.438Z,-4.70
2019-01-22T07:17:17.678Z,-4.70
2019-01-22T07:20:03.934Z,-4.60
2019-01-22T07:22:50.550Z,-4.60
2019-01-22T07:25:36.363Z,-4.40
2019-01-22T07:28:39.745Z,-4.30
2019-01-22T07:31:47.572Z,-4.20
2019-01-22T07:34:43.373Z,-4.20
2019-01-22T07:37:58.851Z,-4.10
2019-01-22T07:41:14.876Z,-4.00
2019-01-22T07:44:14.391Z,-4.00
2019-01-22T07:47:12.315Z,-3.90
2019-01-22T07:50:12.409Z,-3.90
2019-01-22T07:52:49.312Z,-3.80
2019-01-22T07:55:50.126Z,-3.70
2019-01-22T07:58:36.189Z,-3.60
2019-01-22T08:01:44.643Z,-3.50
2019-01-22T08:04:53.371Z,-3.40
2019-01-22T08:08:04.126Z,-3.40
2019-01-22T08:10:54.143Z,-3.60
2019-01-22T08:14:11.587Z,-3.70
2019-01-22T08:17:11.475Z,-3.80
2019-01-22T08:20:39.962Z,-3.80
2019-01-22T08:23:22.871Z,-3.90
2019-01-22T08:26:06.628Z,-3.90
2019-01-22T08:29:23.120Z,-3.80
2019-01-22T08:32:48.414Z,-3.70
2019-01-22T08:35:44.016Z,-3.70
2019-01-22T08:38:36.484Z,-3.60
2019-01-22T08:41:43.850Z,-3.50
2019-01-22T08:44:52.416Z,-3.50
2019-01-22T08:48:06.194Z,-3.40
2019-01-22T08:51:00.544Z,-3.20
2019-01-22T08:53:51.075Z,-3.00
2019-01-22T08:56:47.283Z,-2.80
2019-01-22T08:59:43.135Z,-2.50
2019-01-22T09:02:35.789Z,-2.30
2019-01-22T09:05:54.830Z,-2.10
2019-01-22T09:08:45.052Z,-2.00
2019-01-22T09:12:07.511Z,-2.00
2019-01-22T09:15:42.360Z,-2.00
2019-01-22T09:19:07.965Z,-2.00
2019-01-22T09:22:03.395Z,-2.10
2019-01-22T09:24:49.525Z,-2.00
2019-01-22T09:27:48.175Z,-2.10
2019-01-22T09:31:00.056Z,-2.10
2019-01-22T09:34:06.391Z,-2.10
2019-01-22T09:36:42.107Z,-2.00
2019-01-22T09:39:13.568Z,-2.00
2019-01-22T09:41:42.682Z,-1.90
2019-01-22T09:44:11.667Z,-1.90
2019-01-22T09:46:40.699Z,-1.80
2019-01-22T09:49:10.102Z,-1.70
2019-01-22T09:51:39.131Z,-1.60
2019-01-22T09:54:09.385Z,-1.50
2019-01-22T09:56:39.006Z,-1.50
2019-01-22T09:59:10.548Z,-1.40
2019-01-22T10:01:39.687Z,-1.30
2019-01-22T10:04:08.741Z,-1.30
2019-01-22T10:06:37.788Z,-1.30
2019-01-22T10:09:09.784Z,-1.20
2019-01-22T10:11:38.963Z,-1.10
2019-01-22T10:14:09.374Z,-1.00
2019-01-22T10:16:38.770Z,-1.00
2019-01-22T10:19:09.318Z,-0.90
2019-01-22T10:21:38.702Z,-0.90
2019-01-22T10:24:07.825Z,-0.90
2019-01-22T10:26:37.150Z,-0.80
2019-01-22T10:29:06.204Z,-0.70
2019-01-22T10:31:35.366Z,-0.60
2019-01-22T10:34:04.423Z,-0.50
2019-01-22T10:36:33.678Z,-0.40
2019-01-22T10:39:04.420Z,-0.30
2019-01-22T10:41:33.391Z,-0.20
2019-01-22T10:44:02.679Z,-0.10
2019-01-22T10:46:31.626Z,0.00
2019-01-22T10:49:00.969Z,0.00
2019-01-22T10:51:30.290Z,0.10
2019-01-22T10:53:59.392Z,0.20
2019-01-22T10:56:28.372Z,0.30
2019-01-22T10:59:03.708Z,0.30
2019-01-22T11:01:32.704Z,0.40
2019-01-22T11:04:01.951Z,0.40
2019-01-22T11:06:30.969Z,0.40
2019-01-22T11:08:59.922Z,0.50
2019-01-22T11:11:29.357Z,0.50
2019-01-22T11:13:58.302Z,0.60
2019-01-22T11:16:27.254Z,0.70
2019-01-22T11:18:56.305Z,0.80
2019-01-22T11:21:25.325Z,0.90
2019-01-22T11:23:54.350Z,1.00
2019-01-22T11:26:23.456Z,1.00
2019-01-22T11:28:52.424Z,1.10
2019-01-22T11:31:21.698Z,1.20
2019-01-22T11:33:50.806Z,1.20
2019-01-22T11:36:20.108Z,1.30
2019-01-22T11:38:49.348Z,1.40
2019-01-22T11:41:18.354Z,1.50
2019-01-22T11:43:47.313Z,1.60
2019-01-22T11:46:16.598Z,1.70
2019-01-22T11:48:45.819Z,1.70
2019-01-22T11:51:14.845Z,1.80
2019-01-22T11:53:44.081Z,1.90
2019-01-22T11:56:13.341Z,2.00
2019-01-22T11:58:42.344Z,2.10
2019-01-22T12:01:11.495Z,2.20
2019-01-22T12:03:40.784Z,2.20
2019-01-22T12:06:10.134Z,2.20
2019-01-22T12:08:40.984Z,2.30
2019-01-22T12:11:10.190Z,2.30
2019-01-22T12:13:39.478Z,2.40
2019-01-22T12:16:08.750Z,2.40
2019-01-22T12:18:38.028Z,2.40
2019-01-22T12:21:07.633Z,2.50
2019-01-22T12:23:37.346Z,2.50
2019-01-22T12:26:06.903Z,2.60
2019-01-22T12:28:36.766Z,2.60
2019-01-22T12:31:06.013Z,2.60
2019-01-22T12:33:35.019Z,2.60
2019-01-22T12:36:04.113Z,2.60
2019-01-22T12:38:33.146Z,2.60
2019-01-22T12:41:02.229Z,2.70
2019-01-22T12:43:31.242Z,2.70
2019-01-22T12:46:00.185Z,2.70
2019-01-22T12:48:29.289Z,2.80
2019-01-22T12:50:58.354Z,2.80
2019-01-22T12:53:27.346Z,2.80
2019-01-22T12:55:56.314Z,2.80
2019-01-22T12:58:27.563Z,2.90
2019-01-22T13:00:56.549Z,2.80
2019-01-22T13:03:25.618Z,2.80
2019-01-22T13:06:04.306Z,2.80
2019-01-22T13:08:33.585Z,2.80
2019-01-22T13:11:02.707Z,2.80
2019-01-22T13:13:31.747Z,2.80
2019-01-22T13:16:01.055Z,2.80
2019-01-22T13:18:30.115Z,2.70
2019-01-22T13:20:59.465Z,2.70
2019-01-22T13:23:28.858Z,2.70
2019-01-22T13:25:58.535Z,2.70
2019-01-22T13:28:27.675Z,2.70
2019-01-22T13:30:56.676Z,2.70
2019-01-22T13:33:25.953Z,2.70
2019-01-22T13:35:55.051Z,2.70
2019-01-22T13:38:24.029Z,2.70
2019-01-22T13:40:52.958Z,2.60
2019-01-22T13:43:22.187Z,2.60
2019-01-22T13:45:51.181Z,2.60
2019-01-22T13:48:22.689Z,2.50
2019-01-22T13:50:51.711Z,2.40
2019-01-22T13:53:20.991Z,2.40
2019-01-22T13:55:50.018Z,2.30
2019-01-22T13:58:18.971Z,2.30
2019-01-22T14:00:48.016Z,2.20
2019-01-22T14:03:17.746Z,2.20
2019-01-22T14:05:46.684Z,2.20
2019-01-22T14:08:17.042Z,2.10
2019-01-22T14:10:46.015Z,2.00
2019-01-22T14:13:15.046Z,1.90
2019-01-22T14:15:44.090Z,1.80
2019-01-22T14:18:14.221Z,1.70
2019-01-22T14:20:43.250Z,1.60
2019-01-22T14:23:12.321Z,1.50
2019-01-22T14:25:41.438Z,1.40
2019-01-22T14:28:10.686Z,1.30
2019-01-22T14:30:40.797Z,1.20
2019-01-22T14:33:09.796Z,1.20
2019-01-22T14:35:38.803Z,1.10
2019-01-22T14:38:07.735Z,1.00
2019-01-22T14:40:36.803Z,1.00
2019-01-22T14:43:05.918Z,1.00
2019-01-22T14:45:34.969Z,0.80
2019-01-22T14:48:03.990Z,0.80
2019-01-22T14:50:33.321Z,0.70
2019-01-22T14:53:04.581Z,0.70
2019-01-22T14:55:33.728Z,0.60
2019-01-22T14:58:05.911Z,0.40
2019-01-22T15:00:34.961Z,0.40
2019-01-22T15:03:04.521Z,0.30
2019-01-22T15:05:33.410Z,0.20
2019-01-22T15:08:02.382Z,0.10
2019-01-22T15:10:31.338Z,0.00
2019-01-22T15:13:01.601Z,-0.10
2019-01-22T15:15:30.951Z,-0.30
2019-01-22T15:18:00.153Z,-0.40
2019-01-22T15:20:29.190Z,-0.40
2019-01-22T15:22:58.210Z,-0.60
2019-01-22T15:25:27.276Z,-0.60
2019-01-22T15:27:56.486Z,-0.80
2019-01-22T15:30:28.282Z,-0.90
2019-01-22T15:32:57.704Z,-1.00
2019-01-22T15:35:26.963Z,-1.10
2019-01-22T15:37:56.367Z,-1.20
2019-01-22T15:40:26.678Z,-1.40
2019-01-22T15:42:56.030Z,-1.50
2019-01-22T15:45:26.317Z,-1.50
2019-01-22T15:47:55.645Z,-1.70
2019-01-22T15:50:25.177Z,-1.70
2019-01-22T15:52:57.365Z,-1.80
2019-01-22T15:55:29.210Z,-1.90
2019-01-22T15:57:58.254Z,-1.90
2019-01-22T16:00:27.306Z,-1.90
2019-01-22T16:02:56.746Z,-2.00
2019-01-22T16:05:26.142Z,-2.00
2019-01-22T16:07:55.516Z,-2.10
2019-01-22T16:10:24.634Z,-2.10
2019-01-22T16:12:53.954Z,-2.20
2019-01-22T16:15:23.451Z,-2.30
2019-01-22T16:17:53.120Z,-2.30
2019-01-22T16:20:24.140Z,-2.30
2019-01-22T16:22:53.148Z,-2.40
2019-01-22T16:25:23.036Z,-2.40
2019-01-22T16:27:52.170Z,-2.40
2019-01-22T16:30:22.754Z,-2.40
2019-01-22T16:32:52.183Z,-2.40
2019-01-22T16:35:22.685Z,-2.50
2019-01-22T16:37:51.700Z,-2.50
2019-01-22T16:40:22.091Z,-2.60
2019-01-22T16:42:51.326Z,-2.70
2019-01-22T16:45:22.998Z,-2.80
2019-01-22T16:47:52.082Z,-2.90
2019-01-22T16:50:21.547Z,-2.90
2019-01-22T16:52:50.569Z,-2.90
2019-01-22T16:55:27.926Z,-2.90
2019-01-22T16:57:57.170Z,-3.00
2019-01-22T17:00:28.167Z,-3.00
2019-01-22T17:02:57.455Z,-3.10
2019-01-22T17:05:26.559Z,-3.10
2019-01-22T17:07:56.057Z,-3.20
2019-01-22T17:10:25.231Z,-3.20
2019-01-22T17:12:54.222Z,-3.20
2019-01-22T17:15:23.425Z,-3.30
2019-01-22T17:17:52.414Z,-3.30
2019-01-22T17:20:26.981Z,-3.40
2019-01-22T17:23:01.747Z,-3.40
2019-01-22T17:25:26.718Z,-3.40
2019-01-22T17:27:55.733Z,-3.40
2019-01-22T17:30:25.054Z,-3.40
2019-01-22T17:33:22.462Z,-3.50
2019-01-22T17:35:51.910Z,-3.50
2019-01-22T17:38:22.021Z,-3.50
2019-01-22T17:40:50.935Z,-3.60
2019-01-22T17:43:20.198Z,-3.60
2019-01-22T17:45:49.864Z,-3.60
2019-01-22T17:48:19.317Z,-3.70
2019-01-22T17:50:48.408Z,-3.80
2019-01-22T17:53:17.722Z,-3.80
2019-01-22T17:55:47.057Z,-3.90
2019-01-22T17:58:16.027Z,-3.90
2019-01-22T18:00:45.425Z,-3.90
2019-01-22T18:03:14.477Z,-3.90
2019-01-22T18:05:43.422Z,-3.90
2019-01-22T18:08:12.286Z,-4.00
2019-01-22T18:10:41.286Z,-4.10
2019-01-22T18:13:10.321Z,-4.10
2019-01-22T18:15:39.565Z,-4.20
2019-01-22T18:18:08.411Z,-4.20
2019-01-22T18:20:37.793Z,-4.30
2019-01-22T18:23:07.237Z,-4.30
2019-01-22T18:25:36.722Z,-4.40
2019-01-22T18:28:05.933Z,-4.30
2019-01-22T18:30:35.151Z,-4.20
2019-01-22T18:33:04.438Z,-4.30
2019-01-22T18:35:38.696Z,-4.20
2019-01-22T18:38:08.040Z,-4.20
2019-01-22T18:40:36.914Z,-4.20
2019-01-22T18:43:06.239Z,-4.20
2019-01-22T18:45:35.281Z,-4.30
2019-01-22T18:48:04.450Z,-4.30
2019-01-22T18:50:33.442Z,-4.30
2019-01-22T18:53:02.469Z,-4.30
2019-01-22T18:55:31.664Z,-4.40
2019-01-22T18:58:01.009Z,-4.40
2019-01-22T19:00:30.055Z,-4.50
2019-01-22T19:02:59.423Z,-4.50
2019-01-22T19:05:29.213Z,-4.50
2019-01-22T19:07:58.143Z,-4.50
2019-01-22T19:10:27.945Z,-4.60
2019-01-22T19:12:57.225Z,-4.60
2019-01-22T19:15:26.291Z,-4.70
2019-01-22T19:17:55.357Z,-4.60
2019-01-22T19:20:24.240Z,-4.70
2019-01-22T19:22:53.274Z,-4.60
2019-01-22T19:25:24.973Z,-4.70
2019-01-22T19:27:54.395Z,-4.70
2019-01-22T19:30:25.303Z,-4.70
2019-01-22T19:32:54.410Z,-4.80
2019-01-22T19:35:23.580Z,-4.90
2019-01-22T19:37:52.978Z,-4.90
2019-01-22T19:40:22.290Z,-5.00
2019-01-22T19:42:51.440Z,-5.00
2019-01-22T19:45:26.398Z,-5.00
2019-01-22T19:47:55.554Z,-5.00
2019-01-22T19:50:24.743Z,-5.00
2019-01-22T19:52:54.120Z,-5.00
2019-01-22T19:55:23.065Z,-5.00
2019-01-22T19:57:52.023Z,-5.10
2019-01-22T20:00:26.885Z,-5.20
2019-01-22T20:02:56.210Z,-5.20
2019-01-22T20:05:25.745Z,-5.30
2019-01-22T20:07:55.117Z,-5.40
2019-01-22T20:10:24.479Z,-5.50
2019-01-22T20:12:53.514Z,-5.60
2019-01-22T20:15:22.799Z,-5.70
2019-01-22T20:17:52.081Z,-5.80
2019-01-22T20:20:21.174Z,-5.90
2019-01-22T20:22:50.735Z,-5.90
2019-01-22T20:25:20.922Z,-5.80
2019-01-22T20:27:50.055Z,-5.80
2019-01-22T20:30:27.884Z,-5.80
2019-01-22T20:32:57.613Z,-5.70
2019-01-22T20:35:26.930Z,-5.70
2019-01-22T20:37:56.354Z,-5.70
2019-01-22T20:40:25.545Z,-5.70
2019-01-22T20:42:54.810Z,-5.60
2019-01-22T20:45:25.346Z,-5.50
2019-01-22T20:47:55.290Z,-5.50
2019-01-22T20:50:24.674Z,-5.50
2019-01-22T20:52:54.050Z,-5.50
2019-01-22T20:55:23.803Z,-5.50
2019-01-22T20:57:55.023Z,-5.50
2019-01-22T21:00:24.165Z,-5.50
2019-01-22T21:02:53.337Z,-5.50
2019-01-22T21:05:27.126Z,-5.50
2019-01-22T21:07:57.422Z,-5.50
2019-01-22T21:10:28.569Z,-5.50
2019-01-22T21:12:57.990Z,-5.50
2019-01-22T21:15:27.994Z,-5.60
2019-01-22T21:17:57.430Z,-5.50
2019-01-22T21:20:26.443Z,-5.40
2019-01-22T21:22:55.471Z,-5.40
2019-01-22T21:25:24.946Z,-5.40
2019-01-22T21:27:54.068Z,-5.40
2019-01-22T21:30:31.129Z,-5.40
2019-01-22T21:33:00.174Z,-5.40
2019-01-22T21:35:29.223Z,-5.40
2019-01-22T21:37:58.334Z,-5.40
2019-01-22T21:40:27.412Z,-5.40
2019-01-22T21:42:56.527Z,-5.40
2019-01-22T21:45:25.819Z,-5.40
2019-01-22T21:47:54.843Z,-5.40
2019-01-22T21:50:23.929Z,-5.40
2019-01-22T21:52:53.458Z,-5.30
2019-01-22T21:55:22.969Z,-5.40
2019-01-22T21:57:52.184Z,-5.40
2019-01-22T22:00:22.598Z,-5.40
2019-01-22T22:02:51.919Z,-5.40
2019-01-22T22:05:23.130Z,-5.40
2019-01-22T22:07:52.163Z,-5.50
2019-01-22T22:10:21.979Z,-5.50
2019-01-22T22:12:51.175Z,-5.50
2019-01-22T22:15:21.786Z,-5.50
2019-01-22T22:17:51.013Z,-5.40
2019-01-22T22:20:20.167Z,-5.40
2019-01-22T22:22:49.166Z,-5.40
2019-01-22T22:25:19.905Z,-5.50
2019-01-22T22:27:49.190Z,-5.40
2019-01-22T22:30:24.013Z,-5.50
2019-01-22T22:32:53.290Z,-5.50
2019-01-22T22:35:22.289Z,-5.50
2019-01-22T22:37:51.406Z,-5.60
2019-01-22T22:40:20.528Z,-5.60
2019-01-22T22:42:49.757Z,-5.60
2019-01-22T22:45:19.160Z,-5.70
2019-01-22T22:47:49.029Z,-5.70
2019-01-22T22:50:20.155Z,-5.70
2019-01-22T22:52:49.299Z,-5.70
2019-01-22T22:55:18.850Z,-5.80
2019-01-22T22:57:47.998Z,-5.70
2019-01-22T23:00:37.069Z,-5.70
2019-01-22T23:03:06.730Z,-5.70
2019-01-22T23:05:36.724Z,-5.70
2019-01-22T23:08:05.943Z,-5.70
2019-01-22T23:10:35.401Z,-5.80
2019-01-22T23:13:05.221Z,-5.80
2019-01-22T23:15:34.205Z,-5.80
2019-01-22T23:18:03.237Z,-5.80
2019-01-22T23:20:32.513Z,-5.80
2019-01-22T23:23:01.922Z,-5.90
2019-01-22T23:25:30.822Z,-5.90
2019-01-22T23:28:00.073Z,-5.90
2019-01-22T23:30:29.246Z,-6.00
2019-01-22T23:32:58.337Z,-6.10
2019-01-22T23:35:27.278Z,-6.00
2019-01-22T23:37:56.221Z,-6.00
2019-01-22T23:40:25.622Z,-6.00
2019-01-22T23:42:54.846Z,-6.00
2019-01-22T23:45:24.059Z,-5.90
2019-01-22T23:47:53.025Z,-6.00
2019-01-22T23:50:22.369Z,-6.00
2019-01-22T23:52:51.595Z,-5.90
2019-01-22T23:55:20.539Z,-5.90
2019-01-22T23:57:49.494Z,-5.80
